sensor_id;sensor_type;location;lat;lon;timestamp;P1;durP1;ratioP1;P2;durP2;ratioP2
33696;SDS011;20031;43.416;23.232;2023-06-22T00:00:51;7.82;;;5.13;;
33696;SDS011;20031;43.416;23.232;2023-06-22T00:03:18;6.10;;;4.50;;
33696;SDS011;20031;43.416;23.232;2023-06-22T00:05:44;11.07;;;5.20;;
33696;SDS011;20031;43.416;23.232;2023-06-22T00:08:10;7.57;;;5.00;;
33696;SDS011;20031;43.416;23.232;2023-06-22T00:10:36;11.00;;;4.60;;
33696;SDS011;20031;43.416;23.232;2023-06-22T00:13:01;9.52;;;4.90;;
33696;SDS011;20031;43.416;23.232;2023-06-22T00:15:27;6.65;;;4.80;;
33696;SDS011;20031;43.416;23.232;2023-06-22T00:17:52;7.22;;;4.63;;
33696;SDS011;20031;43.416;23.232;2023-06-22T00:20:18;7.47;;;4.70;;
33696;SDS011;20031;43.416;23.232;2023-06-22T00:22:44;6.85;;;5.10;;
33696;SDS011;20031;43.416;23.232;2023-06-22T00:25:09;8.13;;;4.97;;
33696;SDS011;20031;43.416;23.232;2023-06-22T00:27:35;5.93;;;4.82;;
33696;SDS011;20031;43.416;23.232;2023-06-22T00:30:01;7.00;;;4.90;;
33696;SDS011;20031;43.416;23.232;2023-06-22T00:32:27;8.77;;;4.70;;
33696;SDS011;20031;43.416;23.232;2023-06-22T00:34:52;9.05;;;5.03;;
33696;SDS011;20031;43.416;23.232;2023-06-22T00:37:18;8.98;;;5.13;;
33696;SDS011;20031;43.416;23.232;2023-06-22T00:39:43;11.73;;;4.90;;
33696;SDS011;20031;43.416;23.232;2023-06-22T00:42:09;9.18;;;5.07;;
33696;SDS011;20031;43.416;23.232;2023-06-22T00:44:37;9.13;;;5.03;;
33696;SDS011;20031;43.416;23.232;2023-06-22T00:47:03;8.80;;;5.32;;
33696;SDS011;20031;43.416;23.232;2023-06-22T00:49:29;8.77;;;5.40;;
33696;SDS011;20031;43.416;23.232;2023-06-22T00:51:55;6.63;;;5.05;;
33696;SDS011;20031;43.416;23.232;2023-06-22T00:54:22;6.05;;;4.82;;
33696;SDS011;20031;43.416;23.232;2023-06-22T00:56:55;10.77;;;5.20;;
33696;SDS011;20031;43.416;23.232;2023-06-22T00:59:23;12.80;;;5.00;;
33696;SDS011;20031;43.416;23.232;2023-06-22T01:01:49;8.88;;;5.28;;
33696;SDS011;20031;43.416;23.232;2023-06-22T01:04:14;9.65;;;5.10;;
33696;SDS011;20031;43.416;23.232;2023-06-22T01:06:44;9.60;;;5.70;;
33696;SDS011;20031;43.416;23.232;2023-06-22T01:09:17;9.20;;;5.22;;
33696;SDS011;20031;43.416;23.232;2023-06-22T01:11:54;9.10;;;5.45;;
33696;SDS011;20031;43.416;23.232;2023-06-22T01:14:32;8.95;;;4.97;;
33696;SDS011;20031;43.416;23.232;2023-06-22T01:17:05;11.57;;;5.30;;
33696;SDS011;20031;43.416;23.232;2023-06-22T01:22:12;9.00;;;5.90;;
33696;SDS011;20031;43.416;23.232;2023-06-22T01:30:29;15.95;;;5.95;;
33696;SDS011;20031;43.416;23.232;2023-06-22T01:32:59;9.70;;;5.82;;
33696;SDS011;20031;43.416;23.232;2023-06-22T01:35:29;16.73;;;6.00;;
33696;SDS011;20031;43.416;23.232;2023-06-22T01:37:55;18.25;;;5.60;;
33696;SDS011;20031;43.416;23.232;2023-06-22T01:40:21;9.95;;;5.80;;
33696;SDS011;20031;43.416;23.232;2023-06-22T01:42:47;12.48;;;5.85;;
33696;SDS011;20031;43.416;23.232;2023-06-22T01:45:13;14.95;;;5.90;;
33696;SDS011;20031;43.416;23.232;2023-06-22T01:47:39;18.23;;;7.90;;
33696;SDS011;20031;43.416;23.232;2023-06-22T01:50:06;12.88;;;6.20;;
33696;SDS011;20031;43.416;23.232;2023-06-22T01:52:32;10.68;;;6.03;;
33696;SDS011;20031;43.416;23.232;2023-06-22T01:54:59;9.43;;;5.40;;
33696;SDS011;20031;43.416;23.232;2023-06-22T01:57:25;31.25;;;6.25;;
33696;SDS011;20031;43.416;23.232;2023-06-22T02:00:01;9.23;;;5.10;;
33696;SDS011;20031;43.416;23.232;2023-06-22T02:03:13;13.40;;;5.88;;
33696;SDS011;20031;43.416;23.232;2023-06-22T02:05:22;8.18;;;5.22;;
33696;SDS011;20031;43.416;23.232;2023-06-22T02:07:56;14.93;;;5.45;;
33696;SDS011;20031;43.416;23.232;2023-06-22T02:10:34;10.75;;;5.90;;
33696;SDS011;20031;43.416;23.232;2023-06-22T02:13:01;17.65;;;5.82;;
33696;SDS011;20031;43.416;23.232;2023-06-22T02:15:29;22.95;;;5.95;;
33696;SDS011;20031;43.416;23.232;2023-06-22T02:17:55;10.25;;;5.68;;
33696;SDS011;20031;43.416;23.232;2023-06-22T02:20:21;22.00;;;5.90;;
33696;SDS011;20031;43.416;23.232;2023-06-22T02:22:48;17.90;;;6.00;;
33696;SDS011;20031;43.416;23.232;2023-06-22T02:25:14;9.68;;;5.65;;
33696;SDS011;20031;43.416;23.232;2023-06-22T02:27:39;13.50;;;5.80;;
33696;SDS011;20031;43.416;23.232;2023-06-22T02:30:06;15.00;;;6.55;;
33696;SDS011;20031;43.416;23.232;2023-06-22T02:32:35;30.85;;;8.25;;
33696;SDS011;20031;43.416;23.232;2023-06-22T02:35:01;22.52;;;6.93;;
33696;SDS011;20031;43.416;23.232;2023-06-22T02:37:30;14.02;;;6.10;;
33696;SDS011;20031;43.416;23.232;2023-06-22T02:39:56;17.58;;;6.65;;
33696;SDS011;20031;43.416;23.232;2023-06-22T02:42:21;13.68;;;6.50;;
33696;SDS011;20031;43.416;23.232;2023-06-22T02:44:47;13.32;;;6.38;;
33696;SDS011;20031;43.416;23.232;2023-06-22T02:47:13;12.20;;;6.15;;
33696;SDS011;20031;43.416;23.232;2023-06-22T02:49:38;12.95;;;6.18;;
33696;SDS011;20031;43.416;23.232;2023-06-22T02:52:04;14.18;;;5.72;;
33696;SDS011;20031;43.416;23.232;2023-06-22T02:54:29;15.98;;;6.05;;
33696;SDS011;20031;43.416;23.232;2023-06-22T02:56:55;16.40;;;6.55;;
33696;SDS011;20031;43.416;23.232;2023-06-22T02:59:20;18.92;;;6.25;;
33696;SDS011;20031;43.416;23.232;2023-06-22T03:01:51;15.75;;;6.15;;
33696;SDS011;20031;43.416;23.232;2023-06-22T03:04:17;14.73;;;6.45;;
33696;SDS011;20031;43.416;23.232;2023-06-22T03:06:43;13.70;;;6.10;;
33696;SDS011;20031;43.416;23.232;2023-06-22T03:09:08;17.55;;;6.47;;
33696;SDS011;20031;43.416;23.232;2023-06-22T03:11:34;24.77;;;6.55;;
33696;SDS011;20031;43.416;23.232;2023-06-22T03:14:02;18.00;;;6.65;;
33696;SDS011;20031;43.416;23.232;2023-06-22T03:16:28;13.10;;;6.25;;
33696;SDS011;20031;43.416;23.232;2023-06-22T03:18:54;11.82;;;6.50;;
33696;SDS011;20031;43.416;23.232;2023-06-22T03:21:21;14.77;;;6.50;;
33696;SDS011;20031;43.416;23.232;2023-06-22T03:23:47;15.93;;;6.57;;
33696;SDS011;20031;43.416;23.232;2023-06-22T03:26:15;19.85;;;6.40;;
33696;SDS011;20031;43.416;23.232;2023-06-22T03:28:42;24.60;;;7.10;;
33696;SDS011;20031;43.416;23.232;2023-06-22T03:31:08;14.50;;;6.45;;
33696;SDS011;20031;43.416;23.232;2023-06-22T03:33:33;19.52;;;6.50;;
33696;SDS011;20031;43.416;23.232;2023-06-22T03:35:58;18.23;;;6.53;;
33696;SDS011;20031;43.416;23.232;2023-06-22T03:38:24;20.00;;;9.00;;
33696;SDS011;20031;43.416;23.232;2023-06-22T03:40:49;28.88;;;10.70;;
33696;SDS011;20031;43.416;23.232;2023-06-22T03:43:15;30.45;;;9.18;;
33696;SDS011;20031;43.416;23.232;2023-06-22T03:45:40;20.00;;;8.40;;
33696;SDS011;20031;43.416;23.232;2023-06-22T03:48:06;25.10;;;8.07;;
33696;SDS011;20031;43.416;23.232;2023-06-22T03:50:31;34.35;;;8.20;;
33696;SDS011;20031;43.416;23.232;2023-06-22T03:52:57;22.65;;;7.80;;
33696;SDS011;20031;43.416;23.232;2023-06-22T03:55:22;23.88;;;7.95;;
33696;SDS011;20031;43.416;23.232;2023-06-22T03:57:48;15.73;;;6.03;;
33696;SDS011;20031;43.416;23.232;2023-06-22T04:00:13;18.75;;;7.93;;
33696;SDS011;20031;43.416;23.232;2023-06-22T04:02:41;18.40;;;7.13;;
33696;SDS011;20031;43.416;23.232;2023-06-22T04:05:07;18.00;;;7.53;;
33696;SDS011;20031;43.416;23.232;2023-06-22T04:07:34;17.27;;;7.63;;
33696;SDS011;20031;43.416;23.232;2023-06-22T04:09:59;14.02;;;6.13;;
33696;SDS011;20031;43.416;23.232;2023-06-22T04:12:25;20.05;;;7.30;;
33696;SDS011;20031;43.416;23.232;2023-06-22T04:14:50;23.88;;;7.82;;
33696;SDS011;20031;43.416;23.232;2023-06-22T04:17:15;18.70;;;6.90;;
33696;SDS011;20031;43.416;23.232;2023-06-22T04:19:42;18.00;;;8.43;;
33696;SDS011;20031;43.416;23.232;2023-06-22T04:22:08;13.45;;;6.53;;
33696;SDS011;20031;43.416;23.232;2023-06-22T04:24:34;24.13;;;8.02;;
33696;SDS011;20031;43.416;23.232;2023-06-22T04:27:00;16.08;;;6.93;;
33696;SDS011;20031;43.416;23.232;2023-06-22T04:29:27;18.58;;;8.15;;
33696;SDS011;20031;43.416;23.232;2023-06-22T04:31:55;12.48;;;6.78;;
33696;SDS011;20031;43.416;23.232;2023-06-22T04:34:23;14.10;;;6.03;;
33696;SDS011;20031;43.416;23.232;2023-06-22T04:36:51;14.57;;;5.65;;
33696;SDS011;20031;43.416;23.232;2023-06-22T04:39:17;13.20;;;5.88;;
33696;SDS011;20031;43.416;23.232;2023-06-22T04:41:44;19.83;;;6.95;;
33696;SDS011;20031;43.416;23.232;2023-06-22T04:46:49;17.98;;;5.88;;
33696;SDS011;20031;43.416;23.232;2023-06-22T04:49:19;18.70;;;6.28;;
33696;SDS011;20031;43.416;23.232;2023-06-22T04:51:47;14.85;;;6.70;;
33696;SDS011;20031;43.416;23.232;2023-06-22T04:54:14;15.85;;;6.65;;
33696;SDS011;20031;43.416;23.232;2023-06-22T04:56:39;15.70;;;6.07;;
33696;SDS011;20031;43.416;23.232;2023-06-22T04:59:07;14.95;;;6.32;;
33696;SDS011;20031;43.416;23.232;2023-06-22T05:01:33;18.55;;;7.20;;
33696;SDS011;20031;43.416;23.232;2023-06-22T05:04:00;17.13;;;6.63;;
33696;SDS011;20031;43.416;23.232;2023-06-22T05:06:27;22.95;;;6.38;;
33696;SDS011;20031;43.416;23.232;2023-06-22T05:08:56;20.13;;;6.63;;
33696;SDS011;20031;43.416;23.232;2023-06-22T05:11:25;18.20;;;7.00;;
33696;SDS011;20031;43.416;23.232;2023-06-22T05:13:52;19.45;;;8.20;;
33696;SDS011;20031;43.416;23.232;2023-06-22T05:16:18;36.65;;;11.65;;
33696;SDS011;20031;43.416;23.232;2023-06-22T05:18:49;45.70;;;11.38;;
33696;SDS011;20031;43.416;23.232;2023-06-22T05:21:17;51.92;;;15.90;;
33696;SDS011;20031;43.416;23.232;2023-06-22T05:23:43;78.40;;;19.95;;
33696;SDS011;20031;43.416;23.232;2023-06-22T05:26:08;42.78;;;12.30;;
33696;SDS011;20031;43.416;23.232;2023-06-22T05:28:35;65.47;;;16.25;;
33696;SDS011;20031;43.416;23.232;2023-06-22T05:31:00;62.38;;;16.17;;
33696;SDS011;20031;43.416;23.232;2023-06-22T05:33:26;41.15;;;10.82;;
33696;SDS011;20031;43.416;23.232;2023-06-22T05:35:51;33.38;;;11.05;;
33696;SDS011;20031;43.416;23.232;2023-06-22T05:38:16;36.35;;;10.43;;
33696;SDS011;20031;43.416;23.232;2023-06-22T05:40:42;37.55;;;8.90;;
33696;SDS011;20031;43.416;23.232;2023-06-22T05:43:07;27.25;;;8.85;;
33696;SDS011;20031;43.416;23.232;2023-06-22T05:45:33;44.40;;;9.30;;
33696;SDS011;20031;43.416;23.232;2023-06-22T05:47:58;25.27;;;8.23;;
33696;SDS011;20031;43.416;23.232;2023-06-22T05:50:24;20.40;;;6.85;;
33696;SDS011;20031;43.416;23.232;2023-06-22T05:52:49;16.00;;;7.63;;
33696;SDS011;20031;43.416;23.232;2023-06-22T05:55:15;23.88;;;8.13;;
33696;SDS011;20031;43.416;23.232;2023-06-22T05:57:40;21.52;;;8.38;;
33696;SDS011;20031;43.416;23.232;2023-06-22T06:00:06;28.63;;;9.88;;
33696;SDS011;20031;43.416;23.232;2023-06-22T06:02:35;31.50;;;9.57;;
33696;SDS011;20031;43.416;23.232;2023-06-22T06:05:01;32.08;;;8.07;;
33696;SDS011;20031;43.416;23.232;2023-06-22T06:07:27;17.77;;;8.35;;
33696;SDS011;20031;43.416;23.232;2023-06-22T06:09:53;21.13;;;7.57;;
33696;SDS011;20031;43.416;23.232;2023-06-22T06:12:18;18.00;;;7.50;;
33696;SDS011;20031;43.416;23.232;2023-06-22T06:14:44;19.90;;;7.43;;
33696;SDS011;20031;43.416;23.232;2023-06-22T06:17:09;19.48;;;8.02;;
33696;SDS011;20031;43.416;23.232;2023-06-22T06:19:35;18.75;;;8.00;;
33696;SDS011;20031;43.416;23.232;2023-06-22T06:22:00;21.55;;;8.35;;
33696;SDS011;20031;43.416;23.232;2023-06-22T06:24:26;15.77;;;7.97;;
33696;SDS011;20031;43.416;23.232;2023-06-22T06:26:51;17.63;;;7.20;;
33696;SDS011;20031;43.416;23.232;2023-06-22T06:29:17;14.98;;;6.85;;
33696;SDS011;20031;43.416;23.232;2023-06-22T06:31:42;12.23;;;6.00;;
33696;SDS011;20031;43.416;23.232;2023-06-22T06:34:07;11.35;;;6.38;;
33696;SDS011;20031;43.416;23.232;2023-06-22T06:36:33;13.82;;;6.57;;
33696;SDS011;20031;43.416;23.232;2023-06-22T06:38:58;15.55;;;6.60;;
33696;SDS011;20031;43.416;23.232;2023-06-22T06:41:24;10.73;;;5.97;;
33696;SDS011;20031;43.416;23.232;2023-06-22T06:43:49;8.07;;;6.40;;
33696;SDS011;20031;43.416;23.232;2023-06-22T06:46:15;10.52;;;6.60;;
33696;SDS011;20031;43.416;23.232;2023-06-22T06:48:40;10.55;;;6.82;;
33696;SDS011;20031;43.416;23.232;2023-06-22T06:51:06;14.73;;;7.07;;
33696;SDS011;20031;43.416;23.232;2023-06-22T06:53:35;8.15;;;6.60;;
33696;SDS011;20031;43.416;23.232;2023-06-22T06:56:01;10.18;;;6.47;;
33696;SDS011;20031;43.416;23.232;2023-06-22T06:58:27;13.68;;;6.32;;
33696;SDS011;20031;43.416;23.232;2023-06-22T07:00:53;11.55;;;6.88;;
33696;SDS011;20031;43.416;23.232;2023-06-22T07:03:19;7.25;;;5.88;;
33696;SDS011;20031;43.416;23.232;2023-06-22T07:05:44;10.40;;;6.00;;
33696;SDS011;20031;43.416;23.232;2023-06-22T07:08:10;10.82;;;5.95;;
33696;SDS011;20031;43.416;23.232;2023-06-22T07:10:35;10.18;;;6.05;;
33696;SDS011;20031;43.416;23.232;2023-06-22T07:13:01;12.93;;;6.03;;
33696;SDS011;20031;43.416;23.232;2023-06-22T07:15:27;10.77;;;6.13;;
33696;SDS011;20031;43.416;23.232;2023-06-22T07:17:52;13.75;;;6.25;;
33696;SDS011;20031;43.416;23.232;2023-06-22T07:20:18;9.68;;;6.47;;
33696;SDS011;20031;43.416;23.232;2023-06-22T07:22:44;10.10;;;6.45;;
33696;SDS011;20031;43.416;23.232;2023-06-22T07:25:10;9.13;;;6.10;;
33696;SDS011;20031;43.416;23.232;2023-06-22T07:27:45;9.85;;;5.82;;
33696;SDS011;20031;43.416;23.232;2023-06-22T07:30:21;9.95;;;5.55;;
33696;SDS011;20031;43.416;23.232;2023-06-22T07:32:46;11.07;;;5.80;;
33696;SDS011;20031;43.416;23.232;2023-06-22T07:35:12;12.57;;;5.75;;
33696;SDS011;20031;43.416;23.232;2023-06-22T07:37:37;11.55;;;5.90;;
33696;SDS011;20031;43.416;23.232;2023-06-22T07:40:03;10.13;;;5.80;;
33696;SDS011;20031;43.416;23.232;2023-06-22T07:42:31;14.98;;;6.15;;
33696;SDS011;20031;43.416;23.232;2023-06-22T07:44:58;12.10;;;5.93;;
33696;SDS011;20031;43.416;23.232;2023-06-22T07:47:23;14.18;;;6.13;;
33696;SDS011;20031;43.416;23.232;2023-06-22T07:49:53;13.68;;;6.65;;
33696;SDS011;20031;43.416;23.232;2023-06-22T07:52:26;13.57;;;6.20;;
33696;SDS011;20031;43.416;23.232;2023-06-22T07:54:51;14.57;;;6.15;;
33696;SDS011;20031;43.416;23.232;2023-06-22T07:57:17;8.52;;;6.10;;
33696;SDS011;20031;43.416;23.232;2023-06-22T07:59:42;14.25;;;6.20;;
33696;SDS011;20031;43.416;23.232;2023-06-22T08:02:08;18.70;;;6.18;;
33696;SDS011;20031;43.416;23.232;2023-06-22T08:04:34;15.68;;;6.80;;
33696;SDS011;20031;43.416;23.232;2023-06-22T08:07:00;23.20;;;7.97;;
33696;SDS011;20031;43.416;23.232;2023-06-22T08:09:28;15.68;;;6.93;;
33696;SDS011;20031;43.416;23.232;2023-06-22T08:11:54;7.93;;;6.18;;
33696;SDS011;20031;43.416;23.232;2023-06-22T08:14:21;42.70;;;7.82;;
33696;SDS011;20031;43.416;23.232;2023-06-22T08:16:47;12.70;;;6.90;;
33696;SDS011;20031;43.416;23.232;2023-06-22T08:19:12;11.77;;;6.30;;
33696;SDS011;20031;43.416;23.232;2023-06-22T08:21:38;9.77;;;6.65;;
33696;SDS011;20031;43.416;23.232;2023-06-22T08:24:03;23.05;;;8.02;;
33696;SDS011;20031;43.416;23.232;2023-06-22T08:26:29;14.85;;;6.40;;
33696;SDS011;20031;43.416;23.232;2023-06-22T08:28:54;11.18;;;6.90;;
33696;SDS011;20031;43.416;23.232;2023-06-22T08:31:20;26.27;;;7.50;;
33696;SDS011;20031;43.416;23.232;2023-06-22T08:33:45;24.13;;;7.00;;
33696;SDS011;20031;43.416;23.232;2023-06-22T08:36:11;13.00;;;6.60;;
33696;SDS011;20031;43.416;23.232;2023-06-22T08:38:38;11.18;;;6.85;;
33696;SDS011;20031;43.416;23.232;2023-06-22T08:41:04;26.90;;;9.07;;
33696;SDS011;20031;43.416;23.232;2023-06-22T08:43:29;17.63;;;6.90;;
33696;SDS011;20031;43.416;23.232;2023-06-22T08:45:55;29.63;;;7.57;;
33696;SDS011;20031;43.416;23.232;2023-06-22T08:48:20;11.63;;;5.72;;
33696;SDS011;20031;43.416;23.232;2023-06-22T08:50:46;13.50;;;5.88;;
33696;SDS011;20031;43.416;23.232;2023-06-22T08:53:11;10.75;;;5.90;;
33696;SDS011;20031;43.416;23.232;2023-06-22T08:55:37;12.52;;;6.35;;
33696;SDS011;20031;43.416;23.232;2023-06-22T08:58:02;30.38;;;9.00;;
33696;SDS011;20031;43.416;23.232;2023-06-22T09:00:28;11.10;;;6.15;;
33696;SDS011;20031;43.416;23.232;2023-06-22T09:02:57;10.25;;;6.20;;
33696;SDS011;20031;43.416;23.232;2023-06-22T09:05:24;14.00;;;6.70;;
33696;SDS011;20031;43.416;23.232;2023-06-22T09:07:51;28.80;;;9.90;;
33696;SDS011;20031;43.416;23.232;2023-06-22T09:10:16;11.38;;;6.93;;
33696;SDS011;20031;43.416;23.232;2023-06-22T09:12:42;17.15;;;7.00;;
33696;SDS011;20031;43.416;23.232;2023-06-22T09:15:08;10.70;;;6.10;;
33696;SDS011;20031;43.416;23.232;2023-06-22T09:17:34;10.02;;;6.28;;
33696;SDS011;20031;43.416;23.232;2023-06-22T09:20:01;22.10;;;6.60;;
33696;SDS011;20031;43.416;23.232;2023-06-22T09:22:27;10.55;;;6.28;;
33696;SDS011;20031;43.416;23.232;2023-06-22T09:24:54;14.40;;;6.10;;
33696;SDS011;20031;43.416;23.232;2023-06-22T09:27:21;65.70;;;12.70;;
33696;SDS011;20031;43.416;23.232;2023-06-22T09:29:47;14.65;;;6.60;;
33696;SDS011;20031;43.416;23.232;2023-06-22T09:32:13;8.57;;;6.00;;
33696;SDS011;20031;43.416;23.232;2023-06-22T09:34:38;10.23;;;6.25;;
33696;SDS011;20031;43.416;23.232;2023-06-22T09:37:04;14.80;;;5.70;;
33696;SDS011;20031;43.416;23.232;2023-06-22T09:39:29;14.75;;;6.05;;
33696;SDS011;20031;43.416;23.232;2023-06-22T09:41:55;9.75;;;6.13;;
33696;SDS011;20031;43.416;23.232;2023-06-22T09:44:23;18.85;;;7.95;;
33696;SDS011;20031;43.416;23.232;2023-06-22T09:46:48;26.42;;;9.75;;
33696;SDS011;20031;43.416;23.232;2023-06-22T09:49:14;11.07;;;6.50;;
33696;SDS011;20031;43.416;23.232;2023-06-22T09:51:39;17.55;;;6.30;;
33696;SDS011;20031;43.416;23.232;2023-06-22T09:54:05;10.32;;;5.97;;
33696;SDS011;20031;43.416;23.232;2023-06-22T09:56:30;21.67;;;6.60;;
33696;SDS011;20031;43.416;23.232;2023-06-22T09:58:56;12.23;;;6.22;;
33696;SDS011;20031;43.416;23.232;2023-06-22T10:01:21;8.77;;;6.07;;
33696;SDS011;20031;43.416;23.232;2023-06-22T10:03:47;11.82;;;6.00;;
33696;SDS011;20031;43.416;23.232;2023-06-22T10:06:13;8.20;;;6.13;;
33696;SDS011;20031;43.416;23.232;2023-06-22T10:08:38;8.63;;;6.60;;
33696;SDS011;20031;43.416;23.232;2023-06-22T10:11:05;14.38;;;6.13;;
33696;SDS011;20031;43.416;23.232;2023-06-22T10:13:31;12.35;;;6.85;;
33696;SDS011;20031;43.416;23.232;2023-06-22T10:15:56;17.05;;;6.78;;
33696;SDS011;20031;43.416;23.232;2023-06-22T10:18:22;15.88;;;7.20;;
33696;SDS011;20031;43.416;23.232;2023-06-22T10:20:48;10.23;;;6.85;;
33696;SDS011;20031;43.416;23.232;2023-06-22T10:23:16;10.00;;;7.40;;
33696;SDS011;20031;43.416;23.232;2023-06-22T10:25:42;14.70;;;7.63;;
33696;SDS011;20031;43.416;23.232;2023-06-22T10:28:08;11.43;;;7.50;;
33696;SDS011;20031;43.416;23.232;2023-06-22T10:30:36;26.85;;;8.55;;
33696;SDS011;20031;43.416;23.232;2023-06-22T10:33:01;16.10;;;7.38;;
33696;SDS011;20031;43.416;23.232;2023-06-22T10:35:27;20.00;;;8.82;;
33696;SDS011;20031;43.416;23.232;2023-06-22T10:37:52;35.97;;;11.25;;
33696;SDS011;20031;43.416;23.232;2023-06-22T10:40:19;18.35;;;9.35;;
33696;SDS011;20031;43.416;23.232;2023-06-22T10:42:46;27.42;;;10.15;;
33696;SDS011;20031;43.416;23.232;2023-06-22T10:45:12;19.58;;;8.63;;
33696;SDS011;20031;43.416;23.232;2023-06-22T10:47:38;15.90;;;8.68;;
33696;SDS011;20031;43.416;23.232;2023-06-22T10:50:08;18.70;;;8.93;;
33696;SDS011;20031;43.416;23.232;2023-06-22T10:52:33;16.90;;;9.30;;
33696;SDS011;20031;43.416;23.232;2023-06-22T10:55:00;18.25;;;9.00;;
33696;SDS011;20031;43.416;23.232;2023-06-22T10:57:26;23.45;;;10.00;;
33696;SDS011;20031;43.416;23.232;2023-06-22T10:59:53;17.10;;;9.02;;
33696;SDS011;20031;43.416;23.232;2023-06-22T11:02:21;18.52;;;9.40;;
33696;SDS011;20031;43.416;23.232;2023-06-22T11:04:46;29.45;;;10.20;;
33696;SDS011;20031;43.416;23.232;2023-06-22T11:07:12;34.25;;;12.77;;
33696;SDS011;20031;43.416;23.232;2023-06-22T11:09:38;25.98;;;10.50;;
33696;SDS011;20031;43.416;23.232;2023-06-22T11:12:08;44.50;;;15.00;;
33696;SDS011;20031;43.416;23.232;2023-06-22T11:14:39;38.60;;;12.35;;
33696;SDS011;20031;43.416;23.232;2023-06-22T11:17:16;42.53;;;13.40;;
33696;SDS011;20031;43.416;23.232;2023-06-22T11:19:51;60.25;;;14.00;;
33696;SDS011;20031;43.416;23.232;2023-06-22T11:22:19;38.65;;;13.32;;
33696;SDS011;20031;43.416;23.232;2023-06-22T11:24:49;41.47;;;13.88;;
33696;SDS011;20031;43.416;23.232;2023-06-22T11:27:19;49.58;;;13.10;;
33696;SDS011;20031;43.416;23.232;2023-06-22T11:29:50;20.55;;;10.77;;
33696;SDS011;20031;43.416;23.232;2023-06-22T11:32:19;21.73;;;8.88;;
33696;SDS011;20031;43.416;23.232;2023-06-22T11:34:50;36.13;;;11.85;;
33696;SDS011;20031;43.416;23.232;2023-06-22T11:37:22;18.77;;;10.50;;
33696;SDS011;20031;43.416;23.232;2023-06-22T11:39:56;20.60;;;9.60;;
33696;SDS011;20031;43.416;23.232;2023-06-22T11:42:24;47.30;;;13.15;;
33696;SDS011;20031;43.416;23.232;2023-06-22T11:44:50;39.40;;;11.70;;
33696;SDS011;20031;43.416;23.232;2023-06-22T11:47:15;41.05;;;13.25;;
33696;SDS011;20031;43.416;23.232;2023-06-22T11:49:41;15.60;;;8.35;;
33696;SDS011;20031;43.416;23.232;2023-06-22T11:52:06;18.65;;;8.88;;
33696;SDS011;20031;43.416;23.232;2023-06-22T11:54:33;16.80;;;8.43;;
33696;SDS011;20031;43.416;23.232;2023-06-22T11:57:07;33.78;;;11.05;;
33696;SDS011;20031;43.416;23.232;2023-06-22T11:59:42;39.55;;;11.00;;
33696;SDS011;20031;43.416;23.232;2023-06-22T12:04:51;15.35;;;7.60;;
33696;SDS011;20031;43.416;23.232;2023-06-22T12:07:28;12.30;;;7.50;;
33696;SDS011;20031;43.416;23.232;2023-06-22T12:10:02;17.85;;;7.57;;
33696;SDS011;20031;43.416;23.232;2023-06-22T12:12:34;14.52;;;7.47;;
33696;SDS011;20031;43.416;23.232;2023-06-22T12:15:08;17.25;;;7.20;;
33696;SDS011;20031;43.416;23.232;2023-06-22T12:17:41;14.25;;;7.78;;
33696;SDS011;20031;43.416;23.232;2023-06-22T12:20:17;12.50;;;7.07;;
33696;SDS011;20031;43.416;23.232;2023-06-22T12:22:51;14.88;;;8.27;;
33696;SDS011;20031;43.416;23.232;2023-06-22T12:25:26;12.68;;;7.57;;
33696;SDS011;20031;43.416;23.232;2023-06-22T12:27:58;15.82;;;8.10;;
33696;SDS011;20031;43.416;23.232;2023-06-22T12:30:27;14.98;;;7.63;;
33696;SDS011;20031;43.416;23.232;2023-06-22T12:32:54;20.45;;;8.65;;
33696;SDS011;20031;43.416;23.232;2023-06-22T12:35:24;14.63;;;7.70;;
33696;SDS011;20031;43.416;23.232;2023-06-22T12:37:54;13.02;;;7.60;;
33696;SDS011;20031;43.416;23.232;2023-06-22T12:40:25;20.30;;;7.82;;
33696;SDS011;20031;43.416;23.232;2023-06-22T12:42:53;12.52;;;7.95;;
33696;SDS011;20031;43.416;23.232;2023-06-22T12:45:20;17.88;;;8.07;;
33696;SDS011;20031;43.416;23.232;2023-06-22T12:47:57;16.73;;;8.20;;
33696;SDS011;20031;43.416;23.232;2023-06-22T12:50:25;12.52;;;7.07;;
33696;SDS011;20031;43.416;23.232;2023-06-22T12:52:57;14.05;;;7.43;;
33696;SDS011;20031;43.416;23.232;2023-06-22T12:55:31;12.23;;;7.72;;
33696;SDS011;20031;43.416;23.232;2023-06-22T12:58:01;16.08;;;7.35;;
33696;SDS011;20031;43.416;23.232;2023-06-22T13:00:31;17.65;;;7.70;;
33696;SDS011;20031;43.416;23.232;2023-06-22T13:03:00;21.10;;;8.05;;
33696;SDS011;20031;43.416;23.232;2023-06-22T13:05:30;10.82;;;7.65;;
33696;SDS011;20031;43.416;23.232;2023-06-22T13:08:00;21.15;;;8.25;;
33696;SDS011;20031;43.416;23.232;2023-06-22T13:10:32;14.98;;;9.23;;
33696;SDS011;20031;43.416;23.232;2023-06-22T13:13:06;14.48;;;8.18;;
33696;SDS011;20031;43.416;23.232;2023-06-22T13:15:31;21.13;;;10.02;;
33696;SDS011;20031;43.416;23.232;2023-06-22T13:17:56;20.15;;;9.93;;
33696;SDS011;20031;43.416;23.232;2023-06-22T13:20:22;18.58;;;9.00;;
33696;SDS011;20031;43.416;23.232;2023-06-22T13:22:47;24.40;;;9.98;;
33696;SDS011;20031;43.416;23.232;2023-06-22T13:25:13;20.67;;;9.60;;
33696;SDS011;20031;43.416;23.232;2023-06-22T13:27:41;18.02;;;8.48;;
33696;SDS011;20031;43.416;23.232;2023-06-22T13:30:08;16.42;;;8.13;;
33696;SDS011;20031;43.416;23.232;2023-06-22T13:32:34;20.90;;;8.75;;
33696;SDS011;20031;43.416;23.232;2023-06-22T13:34:59;23.05;;;9.43;;
33696;SDS011;20031;43.416;23.232;2023-06-22T13:37:25;12.00;;;8.35;;
33696;SDS011;20031;43.416;23.232;2023-06-22T13:39:52;15.35;;;8.68;;
33696;SDS011;20031;43.416;23.232;2023-06-22T13:42:17;21.92;;;9.02;;
33696;SDS011;20031;43.416;23.232;2023-06-22T13:44:43;24.00;;;9.40;;
33696;SDS011;20031;43.416;23.232;2023-06-22T13:47:08;24.58;;;9.32;;
33696;SDS011;20031;43.416;23.232;2023-06-22T13:49:34;19.20;;;9.00;;
33696;SDS011;20031;43.416;23.232;2023-06-22T13:52:00;15.32;;;9.07;;
33696;SDS011;20031;43.416;23.232;2023-06-22T13:54:25;18.70;;;9.10;;
33696;SDS011;20031;43.416;23.232;2023-06-22T13:56:51;20.52;;;8.73;;
33696;SDS011;20031;43.416;23.232;2023-06-22T13:59:16;14.15;;;8.88;;
33696;SDS011;20031;43.416;23.232;2023-06-22T14:01:42;15.60;;;8.60;;
33696;SDS011;20031;43.416;23.232;2023-06-22T14:04:08;14.20;;;8.40;;
33696;SDS011;20031;43.416;23.232;2023-06-22T14:06:34;9.75;;;6.47;;
33696;SDS011;20031;43.416;23.232;2023-06-22T14:08:59;10.07;;;7.20;;
33696;SDS011;20031;43.416;23.232;2023-06-22T14:11:25;20.73;;;8.35;;
33696;SDS011;20031;43.416;23.232;2023-06-22T14:13:50;22.45;;;7.72;;
33696;SDS011;20031;43.416;23.232;2023-06-22T14:16:17;18.42;;;6.97;;
33696;SDS011;20031;43.416;23.232;2023-06-22T14:18:42;13.68;;;6.43;;
33696;SDS011;20031;43.416;23.232;2023-06-22T14:21:07;10.30;;;7.00;;
33696;SDS011;20031;43.416;23.232;2023-06-22T14:23:33;11.93;;;7.30;;
33696;SDS011;20031;43.416;23.232;2023-06-22T14:25:58;12.77;;;7.00;;
33696;SDS011;20031;43.416;23.232;2023-06-22T14:28:24;13.63;;;7.30;;
33696;SDS011;20031;43.416;23.232;2023-06-22T14:30:49;19.25;;;8.73;;
33696;SDS011;20031;43.416;23.232;2023-06-22T14:33:15;19.35;;;7.60;;